Time;durP1;ratioP1;P1;durP2;ratioP2;P2;SDS_P1;SDS_P2;PMS_P1;PMS_P2;Temp;Humidity;BMP_temperature;BMP_pressure;BME280_temperature;BME280_humidity;BME280_pressure;Samples;Min_cycle;Max_cycle;Signal;HPM_P1;HPM_P2
2021/09/16 00:00:14;;;;;;;16.13;8.87;;;16.80;98.30;;;;;;5175582;23;20430;-81
2021/09/16 00:02:16;;;;;;;20.53;8.60;;;16.80;98.30;;;;;;5169989;23;20413;-83
2021/09/16 00:04:20;;;;;;;9.97;7.17;;;16.80;98.30;;;;;;5173370;23;20518;-81
2021/09/16 00:06:27;;;;;;;9.50;7.40;;;16.80;98.30;;;;;;5170005;23;20744;-81
2021/09/16 00:08:36;;;;;;;9.90;7.40;;;16.70;98.30;;;;;;5168620;23;20986;-81
2021/09/16 00:10:44;;;;;;;17.67;7.93;;;16.70;98.30;;;;;;5178992;23;20884;-81
2021/09/16 00:15:58;;;;;;;11.73;7.63;;;16.70;98.30;;;;;;5168050;23;20442;-82
2021/09/16 00:18:21;;;;;;;10.83;7.20;;;16.70;98.30;;;;;;5167809;23;20443;-82
2021/09/16 00:20:35;;;;;;;12.20;7.33;;;16.70;98.30;;;;;;5177557;23;20466;-82
2021/09/16 00:22:51;;;;;;;13.93;7.20;;;16.70;98.30;;;;;;5167388;23;20901;-82
2021/09/16 00:24:57;;;;;;;12.50;7.60;;;16.70;98.30;;;;;;5176660;23;20419;-82
2021/09/16 00:27:04;;;;;;;12.93;8.03;;;16.70;98.30;;;;;;5176903;23;20427;-81
2021/09/16 00:29:12;;;;;;;8.90;7.53;;;16.70;98.30;;;;;;5176833;23;20465;-82
2021/09/16 00:31:16;;;;;;;12.20;6.80;;;16.70;98.30;;;;;;5177348;23;20419;-81
2021/09/16 00:33:19;;;;;;;12.37;7.67;;;16.70;98.30;;;;;;5177193;23;20420;-81
2021/09/16 00:35:22;;;;;;;14.37;7.67;;;16.70;98.30;;;;;;5177433;23;21362;-81
2021/09/16 00:37:25;;;;;;;11.63;7.77;;;16.70;98.30;;;;;;5169340;23;20923;-81
2021/09/16 00:39:28;;;;;;;8.67;7.67;;;16.70;98.30;;;;;;5176817;23;20459;-81
2021/09/16 00:41:33;;;;;;;9.33;7.50;;;16.70;98.30;;;;;;5176258;23;20758;-82
2021/09/16 00:43:36;;;;;;;15.90;7.80;;;16.70;98.30;;;;;;5168949;23;20459;-82
2021/09/16 00:45:39;;;;;;;18.60;8.50;;;16.70;98.30;;;;;;5176652;23;20423;-82
2021/09/16 00:47:45;;;;;;;14.20;9.20;;;16.70;98.30;;;;;;5176274;23;20428;-82
2021/09/16 00:49:49;;;;;;;11.43;7.33;;;16.70;98.30;;;;;;5169014;23;20463;-83
2021/09/16 00:51:52;;;;;;;12.30;8.70;;;16.70;98.30;;;;;;5177360;23;20446;-83
2021/09/16 00:53:59;;;;;;;15.87;9.07;;;16.70;98.30;;;;;;5177392;23;20509;-83
2021/09/16 00:56:02;;;;;;;10.20;8.27;;;16.60;98.30;;;;;;5177526;23;20416;-82
2021/09/16 00:58:07;;;;;;;14.07;8.83;;;16.70;98.30;;;;;;5176579;23;20442;-82
2021/09/16 01:00:11;;;;;;;12.20;9.43;;;16.70;98.30;;;;;;5169131;23;20442;-82
2021/09/16 01:02:15;;;;;;;9.33;8.30;;;16.70;98.30;;;;;;5176998;23;20423;-82
2021/09/16 01:04:18;;;;;;;14.60;8.43;;;16.70;98.30;;;;;;5168949;23;20428;-82
2021/09/16 01:06:21;;;;;;;13.40;8.37;;;16.70;98.30;;;;;;5176331;23;20477;-82
2021/09/16 01:08:25;;;;;;;12.57;8.20;;;16.70;98.30;;;;;;5175995;23;20964;-82
2021/09/16 01:10:29;;;;;;;15.63;8.73;;;16.60;98.30;;;;;;5176651;23;20426;-82
2021/09/16 01:12:32;;;;;;;11.53;8.27;;;16.60;98.30;;;;;;5176519;23;20430;-82
2021/09/16 01:14:36;;;;;;;13.83;9.07;;;16.60;98.30;;;;;;5177124;23;20516;-83
2021/09/16 01:16:39;;;;;;;10.60;9.43;;;16.60;98.30;;;;;;5176570;23;20424;-83
2021/09/16 01:18:42;;;;;;;12.37;8.23;;;16.60;98.30;;;;;;5177113;23;20526;-82
2021/09/16 01:20:45;;;;;;;15.13;8.87;;;16.60;98.30;;;;;;5176438;23;20428;-82
2021/09/16 01:22:50;;;;;;;9.53;8.37;;;16.60;98.30;;;;;;5176296;23;20515;-82
2021/09/16 01:24:53;;;;;;;10.70;8.10;;;16.60;98.30;;;;;;5176108;23;20495;-82
2021/09/16 01:26:57;;;;;;;14.73;8.70;;;16.50;98.30;;;;;;5176133;23;20424;-83
2021/09/16 01:29:00;;;;;;;17.13;8.43;;;16.50;98.30;;;;;;5176613;23;20514;-82
2021/09/16 01:31:03;;;;;;;15.13;8.60;;;16.50;98.30;;;;;;5176899;23;20428;-82
2021/09/16 01:33:07;;;;;;;13.93;8.13;;;16.60;98.30;;;;;;5177041;23;20499;-82
2021/09/16 01:35:10;;;;;;;10.40;8.13;;;16.60;98.30;;;;;;5176815;23;20440;-82
2021/09/16 01:37:13;;;;;;;14.10;8.20;;;16.60;98.30;;;;;;5177596;23;20420;-84
2021/09/16 01:39:18;;;;;;;9.93;8.40;;;16.50;98.30;;;;;;5177186;23;20996;-82
2021/09/16 01:41:21;;;;;;;13.37;8.53;;;16.50;98.30;;;;;;5177876;23;20433;-82
2021/09/16 01:43:24;;;;;;;11.47;8.07;;;16.50;98.30;;;;;;5177554;23;20423;-81
2021/09/16 01:45:28;;;;;;;13.77;8.43;;;16.50;98.30;;;;;;5177115;23;20423;-82
2021/09/16 01:47:31;;;;;;;15.27;8.73;;;16.50;98.30;;;;;;5177212;23;20816;-82
2021/09/16 01:49:35;;;;;;;10.57;7.80;;;16.40;98.30;;;;;;5176757;23;20482;-82
2021/09/16 01:51:38;;;;;;;14.93;9.20;;;16.40;98.30;;;;;;5177123;23;20424;-81
2021/09/16 01:53:42;;;;;;;11.87;8.40;;;16.40;98.30;;;;;;5177003;23;20935;-81
2021/09/16 01:55:46;;;;;;;9.60;8.00;;;16.40;98.30;;;;;;5176221;23;20530;-81
2021/09/16 01:57:49;;;;;;;13.47;8.83;;;16.40;98.30;;;;;;5168304;23;20432;-81
2021/09/16 01:59:52;;;;;;;13.77;7.73;;;16.40;98.30;;;;;;5169275;23;20456;-81
2021/09/16 02:01:55;;;;;;;11.80;7.80;;;16.40;98.30;;;;;;5176118;23;20431;-82
2021/09/16 02:03:58;;;;;;;18.23;8.30;;;16.40;98.30;;;;;;5177232;23;20428;-82
2021/09/16 02:06:01;;;;;;;10.03;7.93;;;16.40;98.30;;;;;;5186307;23;20446;-82
2021/09/16 02:08:04;;;;;;;9.80;7.90;;;16.30;98.30;;;;;;5186352;23;20517;-81
2021/09/16 02:10:08;;;;;;;8.87;6.67;;;16.30;98.30;;;;;;5180331;23;21014;-81
2021/09/16 02:12:13;;;;;;;11.87;8.13;;;16.40;98.30;;;;;;5180485;23;20851;-82
2021/09/16 02:14:16;;;;;;;12.57;7.40;;;16.30;98.30;;;;;;5174714;23;20463;-83
2021/09/16 02:16:18;;;;;;;13.13;7.00;;;16.40;98.30;;;;;;5183720;23;20444;-83
2021/09/16 02:18:21;;;;;;;10.67;6.83;;;16.40;98.30;;;;;;5183331;23;20435;-82
2021/09/16 02:20:24;;;;;;;9.17;6.83;;;16.30;98.30;;;;;;5180007;23;20416;-82
2021/09/16 02:22:27;;;;;;;11.43;6.67;;;16.30;98.30;;;;;;5177885;23;20927;-81
2021/09/16 02:24:30;;;;;;;13.67;5.80;;;16.30;98.30;;;;;;5170113;23;20498;-81
2021/09/16 02:26:33;;;;;;;10.83;6.53;;;16.20;98.30;;;;;;5178840;23;20424;-82
2021/09/16 02:28:38;;;;;;;8.90;5.73;;;16.20;98.30;;;;;;5178657;23;20464;-81
2021/09/16 02:30:41;;;;;;;8.17;5.07;;;16.20;98.30;;;;;;5170480;23;20434;-81
2021/09/16 02:32:44;;;;;;;9.27;5.33;;;16.10;98.30;;;;;;5170184;23;20454;-81
2021/09/16 02:34:47;;;;;;;8.83;5.70;;;16.10;98.30;;;;;;5169913;23;20428;-83
2021/09/16 02:36:50;;;;;;;10.77;4.73;;;16.10;98.30;;;;;;5178641;23;20431;-81
2021/09/16 02:38:53;;;;;;;12.53;4.97;;;16.10;98.30;;;;;;5178703;23;20472;-82
2021/09/16 02:40:57;;;;;;;16.07;4.57;;;16.10;98.30;;;;;;5170053;23;20432;-81
2021/09/16 02:43:00;;;;;;;9.77;4.17;;;16.10;98.30;;;;;;5178191;23;20506;-81
2021/09/16 02:45:05;;;;;;;7.47;4.30;;;16.10;98.30;;;;;;5177661;23;20527;-81
2021/09/16 02:47:08;;;;;;;9.17;4.67;;;16.10;98.30;;;;;;5171801;23;20419;-82
2021/09/16 02:49:11;;;;;;;9.37;3.80;;;16.00;98.30;;;;;;5180893;23;20450;-82
2021/09/16 02:51:14;;;;;;;7.03;3.97;;;15.90;98.30;;;;;;5172148;23;20454;-81
2021/09/16 02:53:17;;;;;;;5.77;3.63;;;16.00;98.30;;;;;;5178049;23;20423;-82
2021/09/16 02:55:20;;;;;;;6.83;3.90;;;16.00;98.30;;;;;;5177605;23;20440;-81
2021/09/16 02:57:23;;;;;;;8.40;4.03;;;15.90;98.30;;;;;;5177614;23;20943;-81
2021/09/16 02:59:26;;;;;;;4.67;3.60;;;15.90;98.30;;;;;;5168907;23;20956;-81
2021/09/16 03:01:30;;;;;;;5.90;3.43;;;15.90;98.30;;;;;;5168889;23;20432;-81
2021/09/16 03:03:34;;;;;;;5.33;3.23;;;15.90;98.30;;;;;;5177293;23;20875;-81
2021/09/16 03:05:37;;;;;;;5.50;3.47;;;15.80;98.30;;;;;;5167026;23;20748;-81
2021/09/16 03:07:40;;;;;;;7.20;3.23;;;15.80;98.30;;;;;;5168254;23;20427;-81
2021/09/16 03:09:43;;;;;;;6.40;2.90;;;15.80;98.30;;;;;;5167577;23;20455;-81
2021/09/16 03:11:46;;;;;;;4.60;2.73;;;15.80;98.30;;;;;;5175945;23;20424;-81
2021/09/16 03:13:48;;;;;;;4.20;2.83;;;15.80;98.30;;;;;;5167987;23;20428;-81
2021/09/16 03:15:51;;;;;;;6.10;2.97;;;15.70;98.30;;;;;;5175956;23;20952;-81
2021/09/16 03:17:56;;;;;;;6.83;3.20;;;15.70;98.30;;;;;;5167253;23;20902;-81
2021/09/16 03:19:59;;;;;;;5.67;3.10;;;15.70;98.30;;;;;;5168162;23;20424;-81
2021/09/16 03:22:02;;;;;;;7.27;2.80;;;15.70;98.30;;;;;;5176527;23;20415;-81
2021/09/16 03:24:05;;;;;;;7.97;3.10;;;15.70;98.30;;;;;;5167842;23;20427;-81
2021/09/16 03:26:08;;;;;;;9.10;3.63;;;15.70;98.30;;;;;;5167769;23;20428;-81
2021/09/16 03:28:11;;;;;;;4.90;2.80;;;15.70;98.30;;;;;;5175384;23;20435;-80
2021/09/16 03:30:15;;;;;;;3.97;2.80;;;15.70;98.30;;;;;;5167362;23;20450;-81
2021/09/16 03:32:18;;;;;;;7.00;2.90;;;15.70;98.30;;;;;;5166526;23;20534;-80
2021/09/16 03:34:22;;;;;;;6.50;4.10;;;15.60;98.30;;;;;;5167594;23;20546;-81
2021/09/16 03:36:25;;;;;;;5.50;3.80;;;15.70;98.30;;;;;;5175990;23;20435;-81
2021/09/16 03:38:28;;;;;;;6.90;2.80;;;15.70;98.30;;;;;;5167791;23;21075;-82
2021/09/16 03:40:31;;;;;;;7.10;2.90;;;15.60;98.30;;;;;;5176105;23;20423;-81
2021/09/16 03:42:35;;;;;;;5.87;2.60;;;15.60;98.30;;;;;;5167800;23;20446;-81
2021/09/16 03:44:38;;;;;;;5.47;2.70;;;15.60;98.30;;;;;;5168027;23;20436;-81
2021/09/16 03:46:41;;;;;;;4.20;2.83;;;15.60;98.30;;;;;;5176670;23;20792;-81
2021/09/16 03:48:44;;;;;;;5.40;2.63;;;15.60;98.30;;;;;;5168006;23;20455;-82
2021/09/16 03:50:48;;;;;;;6.23;2.87;;;15.60;98.30;;;;;;5168474;23;20434;-81
2021/09/16 03:52:51;;;;;;;9.10;3.00;;;15.60;98.30;;;;;;5168397;23;20423;-81
2021/09/16 03:54:54;;;;;;;3.60;2.70;;;15.60;98.30;;;;;;5168713;23;20432;-81
2021/09/16 03:56:57;;;;;;;5.87;2.80;;;15.60;98.30;;;;;;5176452;23;20446;-81
2021/09/16 03:59:00;;;;;;;7.10;2.90;;;15.60;98.30;;;;;;5167896;23;20456;-81
2021/09/16 04:01:03;;;;;;;6.40;2.67;;;15.60;98.30;;;;;;5170699;23;20428;-80
2021/09/16 04:03:07;;;;;;;3.40;2.47;;;15.60;98.30;;;;;;5177441;23;20441;-81
2021/09/16 04:05:10;;;;;;;4.90;2.70;;;15.60;98.30;;;;;;5186434;23;20420;-81
2021/09/16 04:07:15;;;;;;;3.90;2.60;;;15.50;98.30;;;;;;5176904;23;20506;-81
2021/09/16 04:09:18;;;;;;;5.87;2.43;;;15.50;98.30;;;;;;5188778;23;20451;-82
2021/09/16 04:11:21;;;;;;;3.50;2.13;;;15.50;98.30;;;;;;5189614;23;20427;-81
2021/09/16 04:13:24;;;;;;;5.30;2.93;;;15.40;98.30;;;;;;5187691;23;20427;-82
2021/09/16 04:15:27;;;;;;;3.37;2.50;;;15.40;98.30;;;;;;5173898;23;20427;-81
2021/09/16 04:17:30;;;;;;;8.20;2.70;;;15.40;98.30;;;;;;5178874;23;20463;-81
2021/09/16 04:19:33;;;;;;;3.73;2.47;;;15.40;98.30;;;;;;5169806;23;20475;-83
2021/09/16 04:21:36;;;;;;;6.90;2.97;;;15.40;98.30;;;;;;5170966;23;20434;-81
2021/09/16 04:23:41;;;;;;;8.43;3.07;;;15.40;98.30;;;;;;5179187;23;20813;-82
2021/09/16 04:25:44;;;;;;;4.63;2.53;;;15.40;98.30;;;;;;5178303;23;20427;-82
2021/09/16 04:27:47;;;;;;;7.80;2.60;;;15.40;98.30;;;;;;5178843;23;20499;-82
2021/09/16 04:29:50;;;;;;;7.93;2.60;;;15.40;98.30;;;;;;5170038;23;20443;-81
2021/09/16 04:31:53;;;;;;;4.07;3.43;;;15.40;98.30;;;;;;5170737;23;20438;-82
2021/09/16 04:33:56;;;;;;;6.67;2.60;;;15.40;98.30;;;;;;5178915;23;20424;-82
2021/09/16 04:35:59;;;;;;;3.73;2.17;;;15.40;98.30;;;;;;5170934;23;20438;-82
2021/09/16 04:38:02;;;;;;;2.97;2.40;;;15.30;98.30;;;;;;5178741;23;20451;-82
2021/09/16 04:40:08;;;;;;;11.73;3.00;;;15.30;98.30;;;;;;5170920;23;20435;-82
2021/09/16 04:42:11;;;;;;;2.97;2.63;;;15.30;98.30;;;;;;5178827;23;20519;-82
2021/09/16 04:44:14;;;;;;;7.73;2.63;;;15.30;98.30;;;;;;5178399;23;20940;-81
2021/09/16 04:46:21;;;;;;;9.17;3.10;;;15.30;98.30;;;;;;5178667;23;20401;-81
2021/09/16 04:48:24;;;;;;;6.93;2.80;;;15.30;98.30;;;;;;5169713;23;20476;-82
2021/09/16 04:50:27;;;;;;;6.37;2.80;;;15.20;98.30;;;;;;5169882;23;20892;-81
2021/09/16 04:52:30;;;;;;;4.87;2.77;;;15.30;98.30;;;;;;5169789;23;20424;-81
2021/09/16 04:54:33;;;;;;;9.90;4.70;;;15.20;98.30;;;;;;5178321;23;20430;-81
2021/09/16 04:56:37;;;;;;;3.87;2.73;;;15.20;98.30;;;;;;5178868;23;20446;-81
2021/09/16 04:58:40;;;;;;;5.10;2.87;;;15.30;98.30;;;;;;5178358;23;20506;-81
2021/09/16 05:00:42;;;;;;;7.07;3.00;;;15.30;98.30;;;;;;5170007;23;20476;-81
2021/09/16 05:02:46;;;;;;;6.33;3.00;;;15.30;98.30;;;;;;5169685;23;20428;-81
2021/09/16 05:04:48;;;;;;;5.27;3.00;;;15.30;98.30;;;;;;5170522;23;20738;-81
2021/09/16 05:06:51;;;;;;;10.50;2.90;;;15.20;98.30;;;;;;5178311;23;20864;-82
2021/09/16 05:08:54;;;;;;;4.40;2.67;;;15.20;98.30;;;;;;5169570;23;20443;-81
2021/09/16 05:10:57;;;;;;;3.37;2.87;;;15.20;98.30;;;;;;5178093;23;20422;-81
2021/09/16 05:13:01;;;;;;;5.60;2.90;;;15.20;98.30;;;;;;5178503;23;20424;-82
2021/09/16 05:15:05;;;;;;;3.70;2.90;;;15.20;98.30;;;;;;5178784;23;20418;-81
2021/09/16 05:17:08;;;;;;;8.07;3.47;;;15.20;98.30;;;;;;5169815;23;20801;-81
2021/09/16 05:19:11;;;;;;;7.43;4.37;;;15.20;98.30;;;;;;5178198;23;20443;-81
2021/09/16 05:21:14;;;;;;;6.90;3.57;;;15.20;98.30;;;;;;5170345;23;20436;-81
2021/09/16 05:23:17;;;;;;;8.20;3.77;;;15.20;98.30;;;;;;5178069;23;20432;-81
2021/09/16 05:25:20;;;;;;;9.00;3.53;;;15.20;98.30;;;;;;5169860;23;20430;-84
2021/09/16 05:27:23;;;;;;;6.27;3.70;;;15.20;98.30;;;;;;5178337;23;20753;-82
2021/09/16 05:29:27;;;;;;;5.80;3.80;;;15.20;98.30;;;;;;5177502;23;20508;-84
2021/09/16 05:31:30;;;;;;;10.20;4.27;;;15.20;98.30;;;;;;5182594;23;20427;-83
2021/09/16 05:33:33;;;;;;;10.70;4.10;;;15.20;98.30;;;;;;5184103;23;20430;-83
2021/09/16 05:35:37;;;;;;;12.27;4.37;;;15.10;98.30;;;;;;5175529;23;20438;-83
2021/09/16 05:37:40;;;;;;;7.23;4.70;;;15.10;98.30;;;;;;5183737;23;20439;-83
2021/09/16 05:39:43;;;;;;;9.80;5.83;;;15.10;98.30;;;;;;5184835;23;20451;-84
2021/09/16 05:41:46;;;;;;;7.13;4.27;;;15.10;98.30;;;;;;5184699;23;20454;-84
2021/09/16 05:43:49;;;;;;;13.00;4.43;;;15.10;98.30;;;;;;5176037;23;20452;-84
2021/09/16 05:45:54;;;;;;;5.80;5.20;;;15.10;98.30;;;;;;5176206;23;20428;-84
2021/09/16 05:47:58;;;;;;;4.27;3.87;;;15.10;98.30;;;;;;5185399;23;20416;-84
2021/09/16 05:50:02;;;;;;;8.50;4.67;;;15.10;98.30;;;;;;5174052;23;20462;-83
2021/09/16 05:52:06;;;;;;;6.40;4.27;;;15.10;98.30;;;;;;5175057;23;21181;-84
2021/09/16 05:54:09;;;;;;;6.83;4.33;;;15.10;98.30;;;;;;5175388;23;20428;-84
2021/09/16 05:56:12;;;;;;;10.77;4.40;;;15.10;98.30;;;;;;5182084;23;20439;-84
2021/09/16 05:58:15;;;;;;;7.77;4.57;;;15.10;98.30;;;;;;5180887;23;20479;-84
2021/09/16 06:00:19;;;;;;;8.07;5.00;;;15.10;98.30;;;;;;5182111;23;20742;-84
2021/09/16 06:02:25;;;;;;;7.43;4.40;;;15.10;98.30;;;;;;5169074;23;21053;-83
2021/09/16 06:04:28;;;;;;;7.17;4.50;;;15.10;98.30;;;;;;5178253;23;20416;-83
2021/09/16 06:06:31;;;;;;;10.60;5.37;;;15.10;98.30;;;;;;5178482;23;20416;-82
2021/09/16 06:08:34;;;;;;;6.43;5.10;;;15.10;98.30;;;;;;5177965;23;20490;-83
2021/09/16 06:10:37;;;;;;;6.70;4.50;;;15.10;98.30;;;;;;5178584;23;20428;-82
2021/09/16 06:12:41;;;;;;;7.40;6.50;;;15.20;98.30;;;;;;5177938;23;20428;-83
2021/09/16 06:14:45;;;;;;;12.43;4.80;;;15.20;98.30;;;;;;5177678;23;20481;-83
2021/09/16 06:16:48;;;;;;;10.60;4.80;;;15.20;98.30;;;;;;5178284;23;20473;-83
2021/09/16 06:18:52;;;;;;;11.13;5.80;;;15.20;98.30;;;;;;5177243;23;20452;-83
2021/09/16 06:20:55;;;;;;;14.03;5.80;;;15.20;98.30;;;;;;5176892;23;20753;-82
2021/09/16 06:22:59;;;;;;;13.67;5.27;;;15.20;98.30;;;;;;5176236;23;21086;-82
2021/09/16 06:25:02;;;;;;;11.60;5.77;;;15.20;98.30;;;;;;5169526;23;20432;-83
2021/09/16 06:27:05;;;;;;;12.50;5.17;;;15.20;98.30;;;;;;5177754;23;20455;-83
2021/09/16 06:29:10;;;;;;;8.73;5.57;;;15.20;98.30;;;;;;5176150;23;20451;-83
2021/09/16 06:31:13;;;;;;;9.40;5.30;;;15.20;98.30;;;;;;5177404;23;20430;-82
2021/09/16 06:33:16;;;;;;;8.10;5.30;;;15.20;98.30;;;;;;5169791;23;20419;-83
2021/09/16 06:35:21;;;;;;;6.73;5.10;;;15.20;98.30;;;;;;5176955;23;20455;-83
2021/09/16 06:37:24;;;;;;;11.87;6.23;;;15.20;98.30;;;;;;5176687;23;20812;-84
2021/09/16 06:39:27;;;;;;;10.43;5.40;;;15.20;98.30;;;;;;5176815;23;20443;-83
2021/09/16 06:41:30;;;;;;;7.50;5.30;;;15.30;98.30;;;;;;5176976;23;20507;-84
2021/09/16 06:43:34;;;;;;;14.63;6.53;;;15.30;98.30;;;;;;5177518;23;20480;-83
2021/09/16 06:45:37;;;;;;;9.60;5.10;;;15.30;98.30;;;;;;5168713;23;20926;-83
2021/09/16 06:47:41;;;;;;;8.40;5.60;;;15.30;98.30;;;;;;5176972;23;21105;-83
2021/09/16 06:49:48;;;;;;;10.07;6.07;;;15.30;98.30;;;;;;5176730;23;21012;-82
2021/09/16 06:51:52;;;;;;;8.57;5.47;;;15.20;98.30;;;;;;5181711;23;20488;-82
2021/09/16 06:53:56;;;;;;;8.60;5.50;;;15.30;98.30;;;;;;5170785;23;20428;-82
2021/09/16 06:55:59;;;;;;;10.73;6.07;;;15.30;98.30;;;;;;5183024;23;20454;-83
2021/09/16 06:58:02;;;;;;;11.00;6.17;;;15.40;98.30;;;;;;5173682;23;20498;-82
2021/09/16 07:00:07;;;;;;;11.80;5.63;;;15.40;98.30;;;;;;5182637;23;20427;-83
2021/09/16 07:02:11;;;;;;;6.83;5.73;;;15.40;98.30;;;;;;5174411;23;20420;-83
2021/09/16 07:04:14;;;;;;;9.57;6.20;;;15.50;98.30;;;;;;5174076;23;20992;-83
2021/09/16 07:06:17;;;;;;;6.57;5.47;;;15.50;98.30;;;;;;5176656;23;20432;-82
2021/09/16 07:08:22;;;;;;;12.80;6.10;;;15.50;98.30;;;;;;5181438;23;20436;-83
2021/09/16 07:10:24;;;;;;;9.17;5.27;;;15.50;98.30;;;;;;5179843;23;20502;-83
2021/09/16 07:12:27;;;;;;;8.90;6.00;;;15.60;98.30;;;;;;5183103;23;20423;-83
2021/09/16 07:14:31;;;;;;;8.67;5.17;;;15.60;98.30;;;;;;5179515;23;20435;-82
2021/09/16 07:16:33;;;;;;;7.30;5.73;;;15.60;98.30;;;;;;5182688;23;20423;-82
2021/09/16 07:18:37;;;;;;;6.80;5.30;;;15.60;98.30;;;;;;5181884;23;20454;-82
2021/09/16 07:20:40;;;;;;;11.27;6.17;;;15.70;98.30;;;;;;5183027;23;20424;-83
2021/09/16 07:22:43;;;;;;;9.30;5.90;;;15.70;98.30;;;;;;5175509;23;20434;-82
2021/09/16 07:24:47;;;;;;;9.40;6.67;;;15.70;98.30;;;;;;5175189;23;20435;-82
2021/09/16 07:26:51;;;;;;;14.53;6.67;;;15.70;98.30;;;;;;5173165;23;20491;-81
2021/09/16 07:28:54;;;;;;;8.53;6.50;;;15.60;98.30;;;;;;5173293;23;20483;-82
2021/09/16 07:30:57;;;;;;;11.07;6.63;;;15.50;98.30;;;;;;5171837;23;21055;-82
2021/09/16 07:33:00;;;;;;;7.83;5.90;;;15.60;98.30;;;;;;5172615;23;20909;-83
2021/09/16 07:35:07;;;;;;;8.97;5.80;;;15.60;98.30;;;;;;5172614;23;20476;-83
2021/09/16 07:37:10;;;;;;;8.10;6.27;;;15.60;98.30;;;;;;5172336;23;20423;-82
2021/09/16 07:39:15;;;;;;;10.97;7.27;;;15.60;98.30;;;;;;5179696;23;20451;-83
2021/09/16 07:41:19;;;;;;;8.63;6.07;;;15.60;98.30;;;;;;5179739;23;21141;-82
2021/09/16 07:43:22;;;;;;;12.60;6.67;;;15.60;98.30;;;;;;5180626;23;20424;-82
2021/09/16 07:45:25;;;;;;;9.80;7.40;;;15.60;98.30;;;;;;5180349;23;20460;-82
2021/09/16 07:47:28;;;;;;;9.83;7.00;;;15.60;98.30;;;;;;5173545;23;20432;-82
2021/09/16 07:49:31;;;;;;;8.93;7.00;;;15.50;98.30;;;;;;5173338;23;20470;-82
2021/09/16 07:51:34;;;;;;;8.83;6.47;;;15.50;98.30;;;;;;5183116;23;20424;-82
2021/09/16 07:53:37;;;;;;;15.73;8.03;;;15.40;98.30;;;;;;5175854;23;20518;-82
2021/09/16 07:55:40;;;;;;;8.97;7.60;;;15.40;98.30;;;;;;5174563;23;20434;-83
2021/09/16 07:57:44;;;;;;;9.90;7.47;;;15.40;98.30;;;;;;5173645;23;20423;-83
2021/09/16 07:59:47;;;;;;;10.87;6.70;;;15.50;98.30;;;;;;5174299;23;20455;-82
2021/09/16 08:01:50;;;;;;;12.13;8.03;;;15.60;98.30;;;;;;5181792;23;20502;-82
2021/09/16 08:03:53;;;;;;;8.80;7.47;;;15.50;98.30;;;;;;5174028;23;20790;-82
2021/09/16 08:05:56;;;;;;;9.30;7.40;;;15.60;98.30;;;;;;5182330;23;20424;-82
2021/09/16 08:07:59;;;;;;;8.37;7.47;;;15.70;98.30;;;;;;5173858;23;20441;-82
2021/09/16 08:10:02;;;;;;;10.53;7.53;;;15.70;98.30;;;;;;5182272;23;20833;-82
2021/09/16 08:12:07;;;;;;;10.33;7.63;;;15.80;98.30;;;;;;5174925;23;20441;-81
2021/09/16 08:14:11;;;;;;;9.10;7.33;;;15.70;98.30;;;;;;5191693;23;20784;-82
2021/09/16 08:16:14;;;;;;;10.07;6.73;;;15.80;98.30;;;;;;5183000;23;21170;-81
2021/09/16 08:18:17;;;;;;;11.30;7.27;;;15.80;98.30;;;;;;5182098;23;20479;-82
2021/09/16 08:20:20;;;;;;;7.60;5.83;;;15.90;98.30;;;;;;5190736;23;20424;-82
2021/09/16 08:22:23;;;;;;;6.93;6.13;;;15.90;98.30;;;;;;5190891;23;20420;-82
2021/09/16 08:24:26;;;;;;;9.43;6.20;;;15.90;98.30;;;;;;5190366;23;20756;-82
2021/09/16 08:26:29;;;;;;;8.50;6.03;;;16.00;98.30;;;;;;5189121;23;20499;-82
2021/09/16 08:28:34;;;;;;;10.40;6.53;;;16.00;98.30;;;;;;5184216;23;20443;-82
2021/09/16 08:30:39;;;;;;;8.80;6.00;;;16.00;98.30;;;;;;5181959;23;20416;-82
2021/09/16 08:32:43;;;;;;;10.00;6.13;;;16.10;98.30;;;;;;5174975;23;20427;-82
2021/09/16 08:34:46;;;;;;;8.33;6.80;;;16.10;98.30;;;;;;5183156;23;20420;-82
2021/09/16 08:36:49;;;;;;;9.70;6.30;;;16.00;98.30;;;;;;5173714;23;20502;-82
2021/09/16 08:38:52;;;;;;;7.40;6.60;;;15.90;98.30;;;;;;5183810;23;20780;-83
2021/09/16 08:40:55;;;;;;;7.57;5.83;;;16.00;98.30;;;;;;5183646;23;20489;-83
2021/09/16 08:42:58;;;;;;;7.43;6.60;;;16.00;98.30;;;;;;5175340;23;20434;-83
2021/09/16 08:45:01;;;;;;;11.87;8.37;;;16.00;98.30;;;;;;5183754;23;20523;-82
2021/09/16 08:47:05;;;;;;;9.13;6.00;;;16.10;98.30;;;;;;5183300;23;20450;-82
2021/09/16 08:49:08;;;;;;;9.73;6.50;;;16.20;98.30;;;;;;5181705;23;20556;-82
2021/09/16 08:51:12;;;;;;;8.60;6.57;;;16.20;98.30;;;;;;5183041;23;20424;-82
2021/09/16 08:53:17;;;;;;;11.33;7.70;;;16.20;98.30;;;;;;5183271;23;20462;-82
2021/09/16 08:55:22;;;;;;;12.40;5.73;;;16.30;98.30;;;;;;5183719;23;20435;-83
2021/09/16 08:57:25;;;;;;;7.17;6.40;;;16.40;98.30;;;;;;5183577;23;20462;-82
2021/09/16 08:59:30;;;;;;;8.93;6.20;;;16.40;98.30;;;;;;5173098;23;20781;-82
2021/09/16 09:01:34;;;;;;;6.90;5.30;;;16.50;98.30;;;;;;5173766;23;20435;-82
2021/09/16 09:03:38;;;;;;;7.00;6.30;;;16.50;98.30;;;;;;5184099;23;20426;-82
2021/09/16 09:05:43;;;;;;;14.57;6.00;;;16.50;98.30;;;;;;5184801;23;20423;-83
2021/09/16 09:07:47;;;;;;;6.87;6.03;;;16.70;98.30;;;;;;5176934;23;20495;-82
2021/09/16 09:09:50;;;;;;;10.70;5.33;;;16.80;98.30;;;;;;5183237;23;20783;-82
2021/09/16 09:12:00;;;;;;;7.47;5.73;;;16.80;98.30;;;;;;5185343;23;20745;-82
2021/09/16 09:14:03;;;;;;;5.97;4.87;;;16.90;98.30;;;;;;5181786;23;20423;-83
2021/09/16 09:16:08;;;;;;;7.30;5.03;;;16.90;98.30;;;;;;5183865;23;20424;-83
2021/09/16 09:18:13;;;;;;;7.93;5.20;;;16.90;98.30;;;;;;5183069;23;20816;-82
2021/09/16 09:20:18;;;;;;;6.80;4.90;;;17.00;98.30;;;;;;5181627;23;20462;-82
2021/09/16 09:22:29;;;;;;;8.57;5.30;;;16.90;98.30;;;;;;5180938;23;21264;-82
2021/09/16 09:24:35;;;;;;;6.20;4.70;;;17.00;98.30;;;;;;5180553;23;20415;-82
2021/09/16 09:26:39;;;;;;;8.20;5.53;;;17.00;98.30;;;;;;5173547;23;20430;-82
2021/09/16 09:28:43;;;;;;;8.90;4.93;;;17.10;98.30;;;;;;5180265;23;20443;-82
2021/09/16 09:30:46;;;;;;;8.63;4.53;;;17.10;98.30;;;;;;5180677;23;20423;-82
2021/09/16 09:32:55;;;;;;;5.33;3.90;;;17.20;98.30;;;;;;5171217;23;20483;-82
2021/09/16 09:34:58;;;;;;;9.53;4.70;;;17.30;98.30;;;;;;5172694;23;20412;-82
2021/09/16 09:37:11;;;;;;;7.50;3.93;;;17.30;98.30;;;;;;5180102;23;20430;-82
2021/09/16 09:39:14;;;;;;;5.07;3.83;;;17.40;98.30;;;;;;5179656;23;20788;-82
2021/09/16 09:41:30;;;;;;;6.80;4.20;;;17.40;98.30;;;;;;5172804;23;20432;-82
2021/09/16 09:43:35;;;;;;;5.47;4.20;;;17.30;98.30;;;;;;5180158;23;20462;-82
2021/09/16 09:45:58;;;;;;;7.07;4.17;;;17.40;98.30;;;;;;5172024;23;20424;-83
2021/09/16 09:48:01;;;;;;;5.50;3.90;;;17.40;98.30;;;;;;5168496;23;20412;-82
2021/09/16 09:50:05;;;;;;;6.93;3.97;;;17.40;98.30;;;;;;5177830;23;20515;-82
2021/09/16 09:52:09;;;;;;;7.47;3.83;;;17.40;98.30;;;;;;5177786;23;20430;-82
2021/09/16 09:54:26;;;;;;;5.60;5.03;;;17.40;98.30;;;;;;5170761;23;20434;-82
2021/09/16 09:56:29;;;;;;;4.57;4.10;;;17.50;98.30;;;;;;5172016;23;20416;-82
2021/09/16 09:58:34;;;;;;;6.97;4.37;;;17.60;98.30;;;;;;5181714;23;20503;-82
2021/09/16 10:00:37;;;;;;;5.80;4.27;;;17.80;98.30;;;;;;5172694;23;20459;-83
2021/09/16 10:02:49;;;;;;;8.23;3.50;;;17.80;98.30;;;;;;5177856;23;20470;-83
2021/09/16 10:04:53;;;;;;;7.30;4.00;;;18.00;98.30;;;;;;5178754;23;20446;-83
2021/09/16 10:06:57;;;;;;;4.50;3.80;;;18.00;98.30;;;;;;5177490;23;20807;-82
2021/09/16 10:09:21;;;;;;;8.50;4.30;;;18.00;98.30;;;;;;5168392;23;20447;-83
2021/09/16 10:11:44;;;;;;;6.70;4.00;;;18.10;98.30;;;;;;5177979;23;20420;-83
2021/09/16 10:13:52;;;;;;;7.87;3.63;;;18.00;98.30;;;;;;5177719;23;20736;-82
2021/09/16 10:18:06;;;;;;;4.67;4.27;;;18.00;98.30;;;;;;5159260;22;20447;-79
2021/09/16 10:20:12;;;;;;;11.03;3.50;;;18.10;98.30;;;;;;5175999;23;20446;-79
2021/09/16 10:22:16;;;;;;;5.83;4.07;;;18.10;98.30;;;;;;5167545;23;21060;-79
2021/09/16 10:24:21;;;;;;;7.50;4.00;;;18.00;98.30;;;;;;5167295;23;20427;-79
2021/09/16 10:26:35;;;;;;;5.80;3.90;;;18.00;98.30;;;;;;5143032;23;20425;-79
2021/09/16 10:28:42;;;;;;;6.77;4.20;;;18.00;98.30;;;;;;5141652;23;21143;-79
2021/09/16 10:30:45;;;;;;;11.10;4.27;;;18.00;98.30;;;;;;5142679;23;20410;-79
2021/09/16 10:33:05;;;;;;;3.60;3.27;;;18.00;98.30;;;;;;5142457;23;20505;-79
2021/09/16 10:35:21;;;;;;;7.00;3.50;;;18.00;98.30;;;;;;5143029;23;20455;-79
2021/09/16 10:37:26;;;;;;;5.30;3.30;;;17.90;98.30;;;;;;5142823;23;20794;-79
2021/09/16 10:39:38;;;;;;;4.30;3.57;;;17.90;98.30;;;;;;5142418;23;20428;-79
2021/09/16 10:41:45;;;;;;;7.10;3.93;;;17.90;98.30;;;;;;5142484;23;20448;-79
2021/09/16 10:44:18;;;;;;;7.50;4.17;;;17.90;98.30;;;;;;5142118;23;20424;-79
2021/09/16 10:46:45;;;;;;;3.97;3.50;;;17.90;98.30;;;;;;5140530;23;20428;-79
2021/09/16 10:49:38;;;;;;;7.77;4.43;;;17.90;98.30;;;;;;5142005;23;20416;-79